Time;durP1;ratioP1;P1;durP2;ratioP2;P2;SDS_P1;SDS_P2;PMS_P1;PMS_P2;Temp;Humidity;BMP_temperature;BMP_pressure;BME280_temperature;BME280_humidity;BME280_pressure;Samples;Min_cycle;Max_cycle;Signal;HPM_P1;HPM_P2
2024/01/01 00:02:23;;;;;;;49.87;29.73;;;;;;;5.09;100.00;97364.53;5052596;28;20261;-77
2024/01/01 00:04:51;;;;;;;43.73;26.07;;;;;;;5.24;100.00;97360.97;5053546;28;20204;-78
2024/01/01 00:07:17;;;;;;;37.93;24.07;;;;;;;5.43;100.00;97356.31;5052806;28;20217;-77
2024/01/01 00:09:44;;;;;;;45.90;27.03;;;;;;;5.53;100.00;97360.06;5054525;28;20231;-81
2024/01/01 00:12:10;;;;;;;34.30;20.33;;;;;;;5.64;100.00;97356.78;5054397;28;20235;-77
2024/01/01 00:14:37;;;;;;;30.07;18.60;;;;;;;5.62;100.00;97345.53;5057167;28;20302;-77
2024/01/01 00:17:03;;;;;;;36.03;19.03;;;;;;;5.64;100.00;97349.75;5054463;28;20210;-77
2024/01/01 00:19:30;;;;;;;32.33;19.60;;;;;;;5.65;100.00;97338.34;5054781;28;20234;-78
2024/01/01 00:21:58;;;;;;;30.53;18.30;;;;;;;5.62;100.00;97338.50;5054532;28;20260;-78
2024/01/01 00:24:24;;;;;;;39.13;22.63;;;;;;;5.60;100.00;97339.53;5054851;28;20210;-78
2024/01/01 00:26:51;;;;;;;43.37;21.60;;;;;;;5.58;100.00;97330.94;5057312;28;20517;-77
2024/01/01 00:29:17;;;;;;;43.50;24.20;;;;;;;5.54;100.00;97340.78;5057887;28;20245;-78
2024/01/01 00:31:44;;;;;;;42.13;23.03;;;;;;;5.54;100.00;97335.53;5057700;28;20233;-79
2024/01/01 00:34:11;;;;;;;46.50;20.70;;;;;;;5.48;100.00;97341.16;5058235;28;20211;-78
2024/01/01 00:36:38;;;;;;;33.77;17.37;;;;;;;5.46;100.00;97331.69;5057749;28;20205;-78
2024/01/01 00:39:06;;;;;;;28.30;15.40;;;;;;;5.38;100.00;97333.94;5058927;28;20208;-78
2024/01/01 00:41:32;;;;;;;19.27;10.83;;;;;;;5.36;100.00;97331.41;5058365;28;20371;-80
2024/01/01 00:43:59;;;;;;;15.97;9.90;;;;;;;5.32;100.00;97332.53;5056702;28;20207;-79
2024/01/01 00:46:28;;;;;;;16.00;7.73;;;;;;;5.36;100.00;97335.81;5056349;28;20211;-77
2024/01/01 00:48:54;;;;;;;14.53;8.03;;;;;;;5.42;100.00;97328.41;5056278;28;20233;-79
2024/01/01 00:51:21;;;;;;;12.10;7.43;;;;;;;5.45;100.00;97341.31;5055723;28;20231;-78
2024/01/01 00:53:47;;;;;;;12.57;7.03;;;;;;;5.49;100.00;97332.34;5056041;28;20687;-78
2024/01/01 00:56:15;;;;;;;13.27;7.67;;;;;;;5.47;100.00;97326.38;5055986;28;20242;-78
2024/01/01 00:58:42;;;;;;;10.70;6.53;;;;;;;5.43;100.00;97327.47;5056374;28;20212;-79
2024/01/01 01:01:08;;;;;;;16.03;8.63;;;;;;;5.37;100.00;97324.41;5056628;28;20265;-78
2024/01/01 01:03:35;;;;;;;15.13;8.13;;;;;;;5.34;100.00;97324.59;5056453;28;20236;-78
2024/01/01 01:06:02;;;;;;;14.73;8.20;;;;;;;5.32;100.00;97329.91;5058675;28;20219;-78
2024/01/01 01:08:28;;;;;;;14.60;7.80;;;;;;;5.31;100.00;97341.31;5059655;28;20216;-79
2024/01/01 01:10:55;;;;;;;16.70;8.87;;;;;;;5.27;100.00;97345.09;5059517;28;20221;-78
2024/01/01 01:13:23;;;;;;;17.13;10.00;;;;;;;5.26;100.00;97342.56;5057188;28;20218;-79
2024/01/01 01:15:50;;;;;;;9.60;6.20;;;;;;;5.28;100.00;97338.91;5056560;28;20218;-79
2024/01/01 01:18:16;;;;;;;11.87;6.33;;;;;;;5.28;100.00;97349.38;5059720;28;20214;-78
2024/01/01 01:20:43;;;;;;;12.27;6.63;;;;;;;5.34;100.00;97349.03;5059701;28;20222;-78
2024/01/01 01:23:10;;;;;;;12.47;6.27;;;;;;;5.37;100.00;97348.81;5058802;28;20627;-79
2024/01/01 01:25:36;;;;;;;13.37;7.27;;;;;;;5.43;100.00;97347.63;5059017;28;20590;-78
2024/01/01 01:28:04;;;;;;;14.70;7.30;;;;;;;5.50;100.00;97352.38;5060701;28;20210;-79
2024/01/01 01:30:32;;;;;;;12.33;7.00;;;;;;;5.53;100.00;97359.19;5060044;28;20232;-79
2024/01/01 01:32:58;;;;;;;12.73;6.60;;;;;;;5.57;100.00;97361.53;5060475;28;20232;-79
2024/01/01 01:35:24;;;;;;;11.83;6.50;;;;;;;5.63;100.00;97358.53;5059132;28;20282;-79
2024/01/01 01:37:51;;;;;;;10.20;5.93;;;;;;;5.69;100.00;97355.53;5060049;28;20215;-78
2024/01/01 01:40:18;;;;;;;10.80;5.90;;;;;;;5.84;100.00;97359.88;5059604;28;20204;-78
2024/01/01 01:42:46;;;;;;;9.90;5.70;;;;;;;5.80;100.00;97358.38;5059017;28;20228;-78
2024/01/01 01:45:13;;;;;;;10.60;6.10;;;;;;;5.73;100.00;97357.03;5058531;28;20208;-78
2024/01/01 01:47:41;;;;;;;10.87;5.97;;;;;;;5.59;100.00;97354.44;5058628;28;20275;-79
2024/01/01 01:50:12;;;;;;;11.90;5.87;;;;;;;5.46;100.00;97348.28;5060321;28;20250;-79
2024/01/01 01:52:39;;;;;;;8.47;5.17;;;;;;;5.37;100.00;97371.56;5060051;28;20239;-79
2024/01/01 01:55:08;;;;;;;9.27;6.17;;;;;;;5.33;100.00;97364.81;5060667;28;20233;-78
2024/01/01 01:57:35;;;;;;;11.97;6.00;;;;;;;5.29;100.00;97360.69;5061503;28;20210;-79
2024/01/01 02:00:04;;;;;;;10.17;5.53;;;;;;;5.23;100.00;97371.53;5061054;28;20216;-79
2024/01/01 02:02:34;;;;;;;11.00;5.70;;;;;;;5.20;100.00;97377.81;5061356;28;20727;-79
2024/01/01 02:05:03;;;;;;;12.40;6.77;;;;;;;5.16;100.00;97371.06;5060656;28;20215;-79
2024/01/01 02:07:30;;;;;;;7.50;5.37;;;;;;;5.16;100.00;97371.06;5061484;28;20242;-79
2024/01/01 02:09:57;;;;;;;10.33;5.50;;;;;;;5.14;100.00;97366.88;5061990;28;20231;-78
2024/01/01 02:12:23;;;;;;;10.43;6.00;;;;;;;5.19;100.00;97370.88;5061323;28;20224;-79
2024/01/01 02:14:50;;;;;;;11.43;5.87;;;;;;;5.21;100.00;97371.66;5061295;28;20211;-79
2024/01/01 02:17:17;;;;;;;9.47;5.43;;;;;;;5.22;100.00;97365.47;5060952;28;20212;-79
2024/01/01 02:19:43;;;;;;;8.37;4.60;;;;;;;5.24;100.00;97371.44;5061592;28;20215;-79
2024/01/01 02:22:11;;;;;;;9.83;5.43;;;;;;;5.29;100.00;97366.78;5061554;28;20224;-79
2024/01/01 02:24:39;;;;;;;8.10;5.03;;;;;;;5.34;100.00;97369.97;5061371;28;20211;-78
2024/01/01 02:27:06;;;;;;;8.27;4.37;;;;;;;5.35;100.00;97366.41;5061293;28;20313;-78
2024/01/01 02:29:32;;;;;;;7.37;4.00;;;;;;;5.36;100.00;97362.00;5061237;28;20234;-78
2024/01/01 02:32:00;;;;;;;5.37;3.37;;;;;;;5.37;100.00;97364.53;5061290;28;20232;-79
2024/01/01 02:34:27;;;;;;;5.57;3.00;;;;;;;5.53;100.00;97372.31;5062923;28;20663;-80
2024/01/01 02:36:55;;;;;;;5.80;3.43;;;;;;;5.55;100.00;97368.66;5070057;28;20276;-79
2024/01/01 02:39:21;;;;;;;6.33;3.60;;;;;;;5.54;100.00;97372.22;5078428;28;20196;-79
2024/01/01 02:41:49;;;;;;;5.03;2.97;;;;;;;5.49;100.00;97368.22;5078807;28;20276;-79
2024/01/01 02:44:17;;;;;;;4.53;2.93;;;;;;;5.38;100.00;97381.94;5078661;28;20188;-79
2024/01/01 02:46:43;;;;;;;7.53;3.33;;;;;;;5.29;100.00;97387.75;5077101;28;20196;-78
2024/01/01 02:49:10;;;;;;;8.30;4.70;;;;;;;5.35;100.00;97381.28;5077940;28;20232;-79
2024/01/01 02:51:36;;;;;;;8.10;4.30;;;;;;;5.45;100.00;97375.38;5078442;28;20279;-79
2024/01/01 02:54:03;;;;;;;7.13;4.30;;;;;;;5.53;100.00;97386.25;5078177;28;20324;-79
2024/01/01 02:56:29;;;;;;;6.20;3.70;;;;;;;5.59;100.00;97370.16;5078366;28;20184;-79
2024/01/01 02:58:57;;;;;;;8.03;3.60;;;;;;;5.64;100.00;97368.09;5078568;28;20275;-78
2024/01/01 03:01:24;;;;;;;7.03;3.27;;;;;;;5.60;100.00;97371.84;5078287;28;20217;-79
2024/01/01 03:03:50;;;;;;;5.80;2.90;;;;;;;5.55;100.00;97379.13;5078319;28;20187;-79
2024/01/01 03:06:18;;;;;;;6.00;3.17;;;;;;;5.49;100.00;97374.28;5078234;28;20192;-78
2024/01/01 03:08:45;;;;;;;6.07;3.53;;;;;;;5.44;100.00;97375.50;5078314;28;20180;-79
2024/01/01 03:11:12;;;;;;;7.00;3.23;;;;;;;5.38;100.00;97376.69;5073660;28;20299;-79
2024/01/01 03:13:39;;;;;;;8.13;3.33;;;;;;;5.38;100.00;97381.09;5068593;28;20212;-79
2024/01/01 03:16:09;;;;;;;6.43;3.50;;;;;;;5.39;100.00;97385.41;5070353;28;20208;-79
2024/01/01 03:18:36;;;;;;;4.20;3.13;;;;;;;5.39;100.00;97394.13;5071675;28;20212;-78
2024/01/01 03:21:03;;;;;;;4.63;3.10;;;;;;;5.41;100.00;97407.97;5077648;28;20215;-78
2024/01/01 03:23:30;;;;;;;6.30;3.73;;;;;;;5.49;100.00;97415.38;5077969;28;20200;-78
2024/01/01 03:25:56;;;;;;;5.00;2.90;;;;;;;5.52;100.00;97416.03;5077966;28;20196;-79
2024/01/01 03:28:23;;;;;;;5.90;2.93;;;;;;;5.58;100.00;97412.19;5074312;28;20206;-79
2024/01/01 03:30:49;;;;;;;7.03;3.33;;;;;;;5.57;100.00;97413.94;5059307;28;20231;-79
2024/01/01 03:33:17;;;;;;;5.33;3.40;;;;;;;5.63;100.00;97410.97;5058978;28;20215;-79
2024/01/01 03:35:45;;;;;;;5.87;3.63;;;;;;;5.62;100.00;97422.38;5060654;28;20217;-79
2024/01/01 03:38:11;;;;;;;4.90;2.87;;;;;;;5.62;100.00;97411.06;5072767;28;20191;-78
2024/01/01 03:40:38;;;;;;;6.60;3.97;;;;;;;5.62;100.00;97413.69;5077145;28;20255;-79
2024/01/01 03:43:05;;;;;;;6.60;3.07;;;;;;;5.65;100.00;97396.00;5077506;28;20294;-78
2024/01/01 03:45:31;;;;;;;4.43;2.93;;;;;;;5.56;100.00;97401.78;5077548;28;20231;-78
2024/01/01 03:47:57;;;;;;;6.73;3.53;;;;;;;5.50;100.00;97412.63;5077099;28;20212;-78
2024/01/01 03:50:25;;;;;;;4.73;3.23;;;;;;;5.54;100.00;97419.38;5077500;28;20230;-78
2024/01/01 03:52:52;;;;;;;7.17;3.40;;;;;;;5.57;100.00;97413.94;5077498;28;20271;-78
2024/01/01 03:55:18;;;;;;;6.83;3.20;;;;;;;5.64;100.00;97420.53;5077354;28;20255;-79
2024/01/01 03:57:45;;;;;;;6.87;3.13;;;;;;;5.68;100.00;97398.41;5076434;28;20206;-80
2024/01/01 04:00:13;;;;;;;6.30;3.67;;;;;;;5.74;100.00;97408.53;5077115;28;20222;-78
2024/01/01 04:02:40;;;;;;;6.63;3.13;;;;;;;5.75;100.00;97401.53;5059754;28;20238;-78
2024/01/01 04:05:07;;;;;;;4.77;2.97;;;;;;;5.69;100.00;97405.34;5077175;28;20203;-78
2024/01/01 04:07:36;;;;;;;6.87;3.37;;;;;;;5.56;100.00;97417.50;5073982;28;20295;-79
2024/01/01 04:10:05;;;;;;;4.93;3.27;;;;;;;5.44;100.00;97417.44;5076830;28;20239;-78
2024/01/01 04:12:31;;;;;;;5.83;2.90;;;;;;;5.32;100.00;97418.16;5063449;28;20248;-78
2024/01/01 04:14:58;;;;;;;6.77;3.10;;;;;;;5.25;100.00;97417.66;5069433;28;20198;-77
2024/01/01 04:17:24;;;;;;;7.43;3.37;;;;;;;5.19;100.00;97423.28;5077435;28;20252;-77
2024/01/01 04:19:50;;;;;;;7.57;3.27;;;;;;;5.12;100.00;97421.94;5075985;28;20203;-77
2024/01/01 04:22:18;;;;;;;5.10;2.90;;;;;;;5.03;100.00;97427.75;5076780;28;20275;-79
2024/01/01 04:24:45;;;;;;;4.80;2.57;;;;;;;4.92;100.00;97434.50;5069487;28;20212;-78
2024/01/01 04:27:12;;;;;;;6.23;2.90;;;;;;;4.80;100.00;97428.22;5076123;28;20207;-78
2024/01/01 04:29:39;;;;;;;4.47;3.10;;;;;;;4.73;100.00;97434.75;5068361;28;20228;-78
2024/01/01 04:32:06;;;;;;;5.47;2.70;;;;;;;4.71;100.00;97433.97;5058232;28;20235;-78
2024/01/01 04:34:32;;;;;;;4.53;3.00;;;;;;;4.70;100.00;97434.06;5059966;28;20204;-78
2024/01/01 04:36:58;;;;;;;7.20;2.90;;;;;;;4.70;100.00;97424.44;5056878;28;20590;-79
2024/01/01 04:39:25;;;;;;;5.17;2.60;;;;;;;4.70;100.00;97427.06;5069837;28;20211;-79
2024/01/01 04:41:53;;;;;;;3.93;2.70;;;;;;;4.77;100.00;97424.94;5075869;28;20216;-78
2024/01/01 04:44:19;;;;;;;4.13;2.37;;;;;;;4.83;100.00;97419.34;5075368;28;20202;-79
2024/01/01 04:46:46;;;;;;;5.17;2.40;;;;;;;4.90;100.00;97411.03;5076033;28;20211;-78
2024/01/01 04:49:12;;;;;;;5.43;2.17;;;;;;;4.86;100.00;97409.53;5075696;28;20219;-78
2024/01/01 04:51:39;;;;;;;3.77;2.13;;;;;;;4.81;100.00;97405.47;5070515;28;20238;-79
2024/01/01 04:54:06;;;;;;;3.47;1.93;;;;;;;4.73;100.00;97416.41;5058127;28;20208;-79
2024/01/01 04:56:32;;;;;;;4.87;1.93;;;;;;;4.63;100.00;97414.38;5057598;28;20762;-79
2024/01/01 04:59:01;;;;;;;2.90;1.67;;;;;;;4.59;100.00;97421.56;5069963;28;20232;-79
2024/01/01 05:01:30;;;;;;;3.80;1.77;;;;;;;4.58;100.00;97427.75;5076690;28;20243;-79
2024/01/01 05:03:57;;;;;;;3.80;2.00;;;;;;;4.50;100.00;97426.47;5076938;28;20196;-79
2024/01/01 05:06:23;;;;;;;3.17;1.70;;;;;;;4.44;100.00;97417.22;5076677;28;20200;-79
2024/01/01 05:08:49;;;;;;;5.57;2.53;;;;;;;4.44;100.00;97422.44;5076930;28;20203;-79
2024/01/01 05:11:16;;;;;;;3.27;1.47;;;;;;;4.42;100.00;97432.19;5079255;28;20242;-79
2024/01/01 05:13:42;;;;;;;5.27;1.73;;;;;;;4.50;100.00;97435.19;5079894;28;20290;-78
2024/01/01 05:16:10;;;;;;;7.50;1.80;;;;;;;4.48;100.00;97429.22;5080213;28;20207;-78
2024/01/01 05:18:37;;;;;;;3.90;1.70;;;;;;;4.50;100.00;97432.56;5080282;28;20209;-78
2024/01/01 05:21:05;;;;;;;1.87;1.30;;;;;;;4.50;100.00;97444.81;5080371;28;20195;-78
2024/01/01 05:23:32;;;;;;;2.77;1.40;;;;;;;4.53;100.00;97452.50;5080335;28;20195;-78
2024/01/01 05:25:58;;;;;;;3.23;1.23;;;;;;;4.59;100.00;97446.91;5080220;28;20254;-78
2024/01/01 05:28:26;;;;;;;2.53;1.27;;;;;;;4.76;100.00;97450.25;5080499;28;20192;-78
2024/01/01 05:30:52;;;;;;;3.17;1.30;;;;;;;4.92;100.00;97440.59;5080294;28;20220;-78
2024/01/01 05:33:20;;;;;;;3.10;1.27;;;;;;;4.97;100.00;97449.03;5080404;28;20282;-79
2024/01/01 05:35:47;;;;;;;2.90;1.20;;;;;;;4.94;100.00;97454.44;5080177;28;20200;-78
2024/01/01 05:38:13;;;;;;;2.20;0.90;;;;;;;4.95;100.00;97456.13;5080336;28;20276;-78
2024/01/01 05:40:42;;;;;;;3.43;0.97;;;;;;;4.90;100.00;97458.16;5079872;28;20199;-79
2024/01/01 05:43:08;;;;;;;3.13;1.07;;;;;;;4.89;100.00;97456.47;5080077;28;20242;-78
2024/01/01 05:45:35;;;;;;;2.77;0.97;;;;;;;4.93;100.00;97458.00;5080006;28;20225;-78
2024/01/01 05:48:01;;;;;;;2.90;0.97;;;;;;;4.97;100.00;97449.03;5080109;28;20208;-79
2024/01/01 05:50:30;;;;;;;2.27;1.10;;;;;;;5.03;100.00;97459.16;5080108;28;20227;-79
2024/01/01 05:52:56;;;;;;;2.30;0.97;;;;;;;5.13;100.00;97464.72;5079883;28;20216;-79
2024/01/01 05:55:23;;;;;;;1.77;1.10;;;;;;;5.25;100.00;97464.81;5079136;28;20195;-79
2024/01/01 05:57:49;;;;;;;2.10;0.90;;;;;;;5.34;100.00;97459.06;5080012;28;20196;-79
2024/01/01 06:00:18;;;;;;;3.20;1.10;;;;;;;5.45;100.00;97472.34;5079794;28;20256;-79
2024/01/01 06:02:45;;;;;;;2.40;0.90;;;;;;;5.47;100.00;97469.63;5079571;28;20294;-79
2024/01/01 06:05:11;;;;;;;1.77;1.30;;;;;;;5.52;100.00;97471.06;5079661;28;20188;-78
2024/01/01 06:07:39;;;;;;;2.43;1.43;;;;;;;5.53;100.00;97466.66;5079743;28;20255;-78
2024/01/01 06:10:06;;;;;;;2.27;1.33;;;;;;;5.54;100.00;97465.72;5079107;28;20192;-78
2024/01/01 06:12:33;;;;;;;1.77;1.13;;;;;;;5.56;100.00;97475.16;5079502;28;20262;-79
2024/01/01 06:14:59;;;;;;;2.30;0.93;;;;;;;5.51;100.00;97477.22;5079699;28;20188;-78
2024/01/01 06:17:25;;;;;;;4.00;1.40;;;;;;;5.49;100.00;97479.09;5079262;28;20202;-79
2024/01/01 06:19:52;;;;;;;3.50;1.20;;;;;;;5.49;100.00;97479.09;5079407;28;20267;-79
2024/01/01 06:22:18;;;;;;;1.90;0.97;;;;;;;5.48;100.00;97481.78;5078195;28;20272;-79
2024/01/01 06:24:46;;;;;;;1.20;1.00;;;;;;;5.48;100.00;97482.66;5079388;28;20242;-79
2024/01/01 06:27:13;;;;;;;5.13;1.03;;;;;;;5.51;100.00;97486.88;5079098;28;20251;-78
2024/01/01 06:29:40;;;;;;;3.23;0.93;;;;;;;5.53;100.00;97485.84;5078935;28;20200;-79
2024/01/01 06:32:06;;;;;;;2.47;0.97;;;;;;;5.46;100.00;97475.81;5078768;28;20283;-78
2024/01/01 06:34:33;;;;;;;1.40;1.00;;;;;;;5.49;100.00;97484.34;5078672;28;20234;-79
2024/01/01 06:36:59;;;;;;;2.27;1.40;;;;;;;5.49;100.00;97489.56;5078495;28;20188;-78
2024/01/01 06:39:26;;;;;;;2.73;0.87;;;;;;;5.39;100.00;97491.06;5078146;28;20209;-79
2024/01/01 06:41:54;;;;;;;2.03;0.90;;;;;;;5.22;100.00;97477.25;5078853;28;20216;-79
2024/01/01 06:44:25;;;;;;;1.90;1.10;;;;;;;5.02;100.00;97494.09;5079120;28;20198;-79
2024/01/01 06:46:51;;;;;;;3.70;1.00;;;;;;;4.84;100.00;97494.31;5078913;28;20211;-79
2024/01/01 06:49:18;;;;;;;2.30;1.00;;;;;;;4.66;100.00;97498.84;5078336;28;20220;-79
2024/01/01 06:51:49;;;;;;;4.37;1.10;;;;;;;4.59;100.00;97500.06;5078426;28;20232;-79
2024/01/01 06:54:15;;;;;;;3.23;1.10;;;;;;;4.50;100.00;97510.22;5078230;28;20196;-78
2024/01/01 06:56:42;;;;;;;2.87;1.10;;;;;;;4.49;100.00;97511.16;5078059;28;20279;-78
2024/01/01 06:59:12;;;;;;;3.07;0.90;;;;;;;4.43;100.00;97516.72;5078318;28;20193;-79
2024/01/01 07:01:41;;;;;;;2.47;0.90;;;;;;;4.37;100.00;97523.13;5077822;28;20295;-78
2024/01/01 07:04:07;;;;;;;0.97;0.80;;;;;;;4.29;100.00;97514.84;5078183;28;20198;-78
2024/01/01 07:06:34;;;;;;;3.47;1.20;;;;;;;4.22;100.00;97526.56;5077140;28;20202;-78
2024/01/01 07:09:01;;;;;;;2.43;1.30;;;;;;;4.16;100.00;97537.34;5077249;28;20222;-78
2024/01/01 07:11:28;;;;;;;2.67;1.00;;;;;;;4.13;100.00;97534.91;5076708;28;20233;-78
2024/01/01 07:13:54;;;;;;;4.00;1.17;;;;;;;4.15;100.00;97540.06;5077248;28;20191;-78
2024/01/01 07:16:22;;;;;;;2.20;1.10;;;;;;;4.08;100.00;97533.44;5077154;28;20200;-78
2024/01/01 07:18:48;;;;;;;3.47;1.00;;;;;;;3.98;100.00;97538.31;5077077;28;20263;-78
2024/01/01 07:21:15;;;;;;;2.27;0.87;;;;;;;3.91;100.00;97544.78;5076986;28;20279;-78
2024/01/01 07:23:41;;;;;;;2.80;1.13;;;;;;;3.88;100.00;97555.44;5076819;28;20253;-78
2024/01/01 07:26:08;;;;;;;1.20;0.83;;;;;;;3.91;100.00;97557.03;5076950;28;20281;-78
2024/01/01 07:28:34;;;;;;;4.00;1.00;;;;;;;4.08;100.00;97559.59;5077392;28;20203;-78
2024/01/01 07:31:01;;;;;;;2.77;0.70;;;;;;;4.20;100.00;97559.81;5077677;28;20225;-78
2024/01/01 07:33:28;;;;;;;3.23;0.90;;;;;;;4.30;100.00;97561.03;5076943;28;20270;-78
2024/01/01 07:35:55;;;;;;;2.47;1.03;;;;;;;4.42;100.00;97557.75;5076839;28;20190;-78
2024/01/01 07:38:22;;;;;;;2.37;0.77;;;;;;;4.48;100.00;97557.41;5077314;28;20195;-78
2024/01/01 07:40:48;;;;;;;3.13;1.10;;;;;;;4.56;100.00;97552.59;5077160;28;20275;-78
2024/01/01 07:43:15;;;;;;;2.00;0.90;;;;;;;4.55;100.00;97560.53;5077104;28;20266;-79
2024/01/01 07:45:41;;;;;;;2.87;1.27;;;;;;;4.55;100.00;97563.16;5064817;28;20207;-78
2024/01/01 07:48:09;;;;;;;1.53;0.67;;;;;;;4.49;100.00;97555.63;5055163;28;20208;-78
2024/01/01 07:50:37;;;;;;;1.27;0.73;;;;;;;4.48;100.00;97554.78;5054851;28;20685;-78
2024/01/01 07:53:04;;;;;;;1.07;0.73;;;;;;;4.48;100.00;97559.16;5053809;28;20227;-78
2024/01/01 07:55:30;;;;;;;5.80;0.97;;;;;;;4.51;100.00;97564.22;5053068;28;20206;-78
2024/01/01 07:57:57;;;;;;;1.83;0.70;;;;;;;4.52;100.00;97565.94;5053551;28;20215;-78
2024/01/01 08:00:24;;;;;;;2.57;0.90;;;;;;;4.56;100.00;97570.91;5053069;28;20225;-79
2024/01/01 08:02:51;;;;;;;2.30;1.00;;;;;;;4.64;100.00;97568.72;5052298;28;20240;-78
2024/01/01 08:05:17;;;;;;;2.63;0.77;;;;;;;4.72;100.00;97563.94;5052006;28;20708;-78
2024/01/01 08:07:47;;;;;;;1.53;0.70;;;;;;;4.77;100.00;97568.91;5051992;28;20697;-78
2024/01/01 08:10:14;;;;;;;1.83;0.77;;;;;;;4.84;100.00;97578.94;5052044;28;20204;-79
2024/01/01 08:12:41;;;;;;;3.60;0.80;;;;;;;4.91;100.00;97584.69;5058125;28;20250;-79
2024/01/01 08:15:08;;;;;;;1.63;0.70;;;;;;;4.91;100.00;97593.41;5061325;28;20219;-79
2024/01/01 08:17:34;;;;;;;1.00;0.70;;;;;;;4.95;100.00;97594.06;5051692;28;20683;-78
2024/01/01 08:20:01;;;;;;;2.43;0.70;;;;;;;4.99;100.00;97593.81;5051629;28;20213;-78
2024/01/01 08:22:28;;;;;;;4.57;0.87;;;;;;;4.97;100.00;97585.19;5054997;28;20228;-78
2024/01/01 08:24:55;;;;;;;4.10;0.80;;;;;;;5.02;100.00;97583.16;5066044;28;20235;-79
2024/01/01 08:27:22;;;;;;;3.57;0.90;;;;;;;5.04;100.00;97570.84;5060239;28;20211;-78
2024/01/01 08:29:49;;;;;;;3.33;1.00;;;;;;;5.04;100.00;97578.69;5054403;28;20306;-78
2024/01/01 08:32:15;;;;;;;1.40;0.70;;;;;;;4.98;100.00;97586.88;5054088;28;20281;-80
2024/01/01 08:34:42;;;;;;;1.17;0.63;;;;;;;5.00;100.00;97579.78;5054655;28;20212;-78
2024/01/01 08:37:08;;;;;;;3.63;0.97;;;;;;;5.06;100.00;97587.28;5051488;28;20205;-78
2024/01/01 08:39:35;;;;;;;1.20;0.70;;;;;;;5.09;100.00;97584.53;5051673;28;20218;-78
2024/01/01 08:42:03;;;;;;;1.53;0.90;;;;;;;5.27;100.00;97582.63;5052131;28;20235;-77
2024/01/01 08:44:30;;;;;;;3.10;0.70;;;;;;;5.29;100.00;97586.84;5059252;28;20264;-78
2024/01/01 08:46:56;;;;;;;2.53;0.70;;;;;;;5.34;100.00;97584.81;5076912;28;20291;-77
2024/01/01 08:49:23;;;;;;;2.60;0.73;;;;;;;5.47;100.00;97591.03;5068169;28;20214;-79
2024/01/01 08:51:49;;;;;;;1.40;0.70;;;;;;;5.63;100.00;97596.25;5067082;28;20247;-78
2024/01/01 08:54:16;;;;;;;1.03;0.80;;;;;;;5.69;100.00;97593.25;5060746;28;20216;-79
2024/01/01 08:56:43;;;;;;;2.00;0.73;;;;;;;5.70;100.00;97592.31;5059060;28;20212;-78
2024/01/01 08:59:12;;;;;;;3.53;1.00;;;;;;;5.65;100.00;97589.97;5078480;28;20278;-78
2024/01/01 09:01:39;;;;;;;2.67;0.90;;;;;;;5.58;100.00;97603.53;5080515;28;20318;-78
2024/01/01 09:04:05;;;;;;;3.10;1.43;;;;;;;5.58;100.00;97603.53;5079710;28;20204;-78
2024/01/01 09:06:32;;;;;;;3.13;1.00;;;;;;;5.65;100.00;97597.84;5080403;28;20202;-78
2024/01/01 09:08:58;;;;;;;1.80;1.30;;;;;;;5.68;100.00;97616.00;5080308;28;20252;-79
2024/01/01 09:11:25;;;;;;;4.23;0.93;;;;;;;5.71;100.00;97610.59;5079510;28;20304;-78
2024/01/01 09:13:51;;;;;;;2.77;1.33;;;;;;;5.77;100.00;97605.00;5079627;28;20207;-78
2024/01/01 09:16:19;;;;;;;1.40;0.60;;;;;;;5.81;100.00;97597.81;5079549;28;20202;-77
2024/01/01 09:18:46;;;;;;;3.00;1.27;;;;;;;5.81;100.00;97603.88;5079161;28;20251;-77
2024/01/01 09:21:16;;;;;;;1.97;0.97;;;;;;;5.86;100.00;97614.97;5079478;28;20222;-78
2024/01/01 09:23:42;;;;;;;3.73;1.07;;;;;;;5.90;100.00;97616.47;5079506;28;20214;-78
2024/01/01 09:26:09;;;;;;;3.53;1.10;;;;;;;5.84;100.00;97616.84;5079118;28;20213;-79
2024/01/01 09:28:36;;;;;;;2.70;0.97;;;;;;;5.82;100.00;97618.72;5078643;28;20204;-78
2024/01/01 09:31:03;;;;;;;1.00;0.90;;;;;;;5.86;100.00;97614.97;5079041;28;20196;-78
2024/01/01 09:33:30;;;;;;;0.73;0.67;;;;;;;5.96;100.00;97617.88;5079377;28;20212;-78
2024/01/01 09:35:57;;;;;;;3.20;1.13;;;;;;;5.92;100.00;97614.59;5078995;28;20189;-78
2024/01/01 09:38:23;;;;;;;2.73;0.87;;;;;;;5.96;100.00;97616.13;5079201;28;20188;-78
2024/01/01 09:40:50;;;;;;;1.07;0.70;;;;;;;6.05;100.00;97609.47;5078968;28;20265;-78
2024/01/01 09:43:17;;;;;;;1.90;0.70;;;;;;;6.05;100.00;97620.81;5079008;28;20192;-78
2024/01/01 09:45:44;;;;;;;3.70;0.80;;;;;;;6.14;100.00;97625.53;5078884;28;20201;-79
2024/01/01 09:48:11;;;;;;;4.37;1.17;;;;;;;6.27;100.00;97610.72;5079224;28;20278;-78
2024/01/01 09:50:38;;;;;;;4.83;0.87;;;;;;;6.34;100.00;97616.47;5078984;28;20295;-80
2024/01/01 09:53:05;;;;;;;2.97;0.77;;;;;;;6.49;100.00;97610.25;5078805;28;20232;-79
2024/01/01 09:55:32;;;;;;;2.57;0.73;;;;;;;6.56;100.00;97601.94;5077781;28;20199;-80
2024/01/01 09:57:58;;;;;;;2.30;1.10;;;;;;;6.60;100.00;97599.97;5078532;28;20181;-78
2024/01/01 10:00:25;;;;;;;3.80;0.90;;;;;;;6.76;100.00;97588.41;5078867;28;20195;-79
2024/01/01 10:02:52;;;;;;;2.20;1.00;;;;;;;6.86;99.38;97584.28;5078511;28;20290;-78
2024/01/01 10:05:18;;;;;;;1.20;0.70;;;;;;;6.93;98.57;97575.06;5078335;28;20269;-81
2024/01/01 10:07:48;;;;;;;2.23;0.67;;;;;;;7.06;97.18;97573.31;5081197;28;20192;-79
2024/01/01 10:10:28;;;;;;;1.33;0.70;;;;;;;7.16;96.37;97577.06;5096945;28;20214;-78
2024/01/01 10:12:54;;;;;;;4.63;0.83;;;;;;;7.24;95.56;97564.25;5098093;28;20226;-78
2024/01/01 10:15:21;;;;;;;0.93;0.70;;;;;;;7.24;94.38;97561.63;5098563;28;20187;-78
2024/01/01 10:17:48;;;;;;;4.27;0.80;;;;;;;7.26;95.37;97566.81;5097702;28;20234;-81
2024/01/01 10:20:14;;;;;;;1.83;0.67;;;;;;;7.36;92.68;97545.88;5098170;28;20198;-80
2024/01/01 10:22:42;;;;;;;1.80;0.50;;;;;;;7.38;92.52;97556.31;5098315;28;20271;-80
2024/01/01 10:25:15;;;;;;;1.53;1.00;;;;;;;7.36;91.31;97558.22;5097950;28;20251;-80
2024/01/01 10:27:43;;;;;;;1.67;0.93;;;;;;;7.33;92.23;97563.66;5098264;28;20193;-79
2024/01/01 10:30:11;;;;;;;2.40;1.03;;;;;;;7.32;92.40;97572.47;5098771;28;20260;-78
2024/01/01 10:32:38;;;;;;;2.40;1.10;;;;;;;7.36;92.41;97571.34;5098407;28;20228;-79
2024/01/01 10:35:07;;;;;;;3.03;1.20;;;;;;;7.39;90.91;97573.75;5098536;28;20290;-79
2024/01/01 10:37:34;;;;;;;3.23;0.93;;;;;;;7.48;90.78;97570.53;5097875;28;20268;-79
2024/01/01 10:40:05;;;;;;;3.10;1.53;;;;;;;7.51;89.42;97552.78;5098270;28;20205;-79
2024/01/01 10:42:34;;;;;;;5.73;3.63;;;;;;;7.61;85.45;97537.22;5098121;28;20221;-78
2024/01/01 10:45:03;;;;;;;4.13;1.40;;;;;;;7.75;85.86;97555.56;5098097;28;20190;-78
2024/01/01 10:47:30;;;;;;;3.93;1.80;;;;;;;7.86;86.34;97560.94;5097852;28;20188;-78
2024/01/01 10:50:13;;;;;;;4.07;1.53;;;;;;;8.00;84.74;97550.31;5098030;28;20271;-78
2024/01/01 10:52:55;;;;;;;2.63;1.60;;;;;;;8.03;85.41;97563.28;5097391;28;20255;-78
2024/01/01 10:55:49;;;;;;;1.50;0.77;;;;;;;8.05;81.30;97533.28;5095426;28;20216;-78
2024/01/01 10:58:29;;;;;;;3.77;1.70;;;;;;;8.08;81.55;97550.66;5084927;28;20321;-81
2024/01/01 11:01:05;;;;;;;2.80;1.40;;;;;;;8.11;82.21;97542.53;5071502;28;20245;-80
2024/01/01 11:03:33;;;;;;;5.80;1.50;;;;;;;8.10;80.15;97530.34;5060285;28;20203;-79
2024/01/01 11:05:59;;;;;;;3.90;1.48;;;;;;;8.07;80.81;97541.06;5056356;28;20430;-79
2024/01/01 11:08:27;;;;;;;5.50;1.30;;;;;;;8.08;80.00;97527.78;5053112;28;20209;-79
2024/01/01 11:10:55;;;;;;;3.77;1.33;;;;;;;8.14;79.16;97530.00;5053740;28;20210;-79
2024/01/01 11:13:55;;;;;;;7.13;1.20;;;;;;;8.16;79.43;97535.19;5053272;28;20331;-78
2024/01/01 11:16:22;;;;;;;2.60;1.00;;;;;;;8.11;77.70;97522.34;5052618;28;20211;-79
2024/01/01 11:18:49;;;;;;;3.43;0.90;;;;;;;8.15;77.15;97531.69;5053017;28;20210;-78
2024/01/01 11:21:32;;;;;;;3.53;0.90;;;;;;;8.15;77.89;97544.03;5052639;28;20229;-77
2024/01/01 11:24:01;;;;;;;3.57;0.83;;;;;;;8.04;76.32;97531.59;5052488;28;20217;-77
2024/01/01 11:26:33;;;;;;;2.17;1.13;;;;;;;8.07;77.73;97543.69;5052573;28;20302;-77
2024/01/01 11:29:02;;;;;;;3.33;1.03;;;;;;;8.06;76.34;97534.13;5052543;28;20208;-79
2024/01/01 11:31:30;;;;;;;4.77;1.10;;;;;;;8.12;77.02;97533.69;5053318;28;20228;-81
2024/01/01 11:34:01;;;;;;;3.67;1.20;;;;;;;8.13;76.47;97530.09;5053195;28;20209;-81